Nearby METAR Reports

 

KPMD - Palmdale, California, USA
Distance from station: NNE 12mi, 19km
Updated: Sun, 26-Mar-2017 4:53pm PDT
Clear
Clear
 Wind from WSW
Wind: WSW 17 mph , 28 km/h, Gust: 25 mph , 41 km/h
Temperature: 66°F , 19°C
Dew Point: 46°F , 8°C
Humidity: 49%
Barometer: 29.99 inHg , 1015.6 hPa
Clouds: Clear
Visibility: 10 miles , 16 km
2017/03/26 23:53 KPMD 262353Z AUTO 25015G22KT 10SM CLR 19/08 A2999 RMK AO2 PK WND 32026/2321 SLP148 T01890078 10211 20156 58001
KWJF - Lancaster/Fox, California, USA
Distance from station: N 17mi, 27km
Updated: Sun, 26-Mar-2017 4:56pm PDT
Clear
Clear
 Wind from W
Wind: W 29 mph , 46 km/h, Gust: 40 mph , 65 km/h
Temperature: 63°F , 17°C
Dew Point: 39°F , 4°C
Humidity: 42%
Barometer: 29.98 inHg , 1015.2 hPa
Clouds: Clear
Visibility: 10 miles , 16 km
2017/03/26 23:56 KWJF 262356Z 27025G35KT 10SM CLR 17/04 A2998 RMK AO2 PK WND 27036/2313 SLP152 T01720044 10211 20161 58005
 
KMWS - Mount Wilson, California, USA
Distance from station: SSE 18mi, 30km
Updated: Wed, 13-May-2015 6:45am PDT
NOT Current

 Wind from S
Wind: S 3 mph , 6 km/h, Gust: 5 mph , 7 km/h
Temperature: 43°F , 6°C
Dew Point: -0°F , -18°C
Humidity: 16%
2015/05/13 13:45 KMWS 131345Z 18003G04KT 06/M18 RMK SNOW DEPTH 1.00
KWHP - La / Whiteman, California, USA
Distance from station: SW 21mi, 34km
Updated: Sun, 26-Mar-2017 4:50pm PDT
Mostly cloudy
Mostly cloudy
 Wind from SE
Wind: SE 8 mph , 13 km/h
Temperature: 64°F , 18°C
Dew Point: 48°F , 9°C
Humidity: 56%
Barometer: 30.04 inHg , 1017.3 hPa
Clouds: Mostly cloudy
Visibility: 10 miles , 16 km
Cloud details: Mostly cloudy 4000 ft
2017/03/26 23:50 KWHP 262350Z 13007KT 10SM BKN040 18/09 A3004
 
KBUR - Burbank, California, USA
Distance from station: SSW 22mi, 35km
Updated: Sun, 26-Mar-2017 4:53pm PDT
Clear
Clear
 Wind from SSW
Wind: SSW 7 mph , 11 km/h
Temperature: 64°F , 18°C
Dew Point: 48°F , 9°C
Humidity: 56%
Barometer: 30.01 inHg , 1016.3 hPa
Clouds: Clear
Visibility: 10 miles , 16 km
2017/03/26 23:53 KBUR 262353Z 20006KT 10SM CLR 18/09 A3001 RMK AO2 SLP153 T01830089 10206 20161 56009 $
KVNY - Van Nuys, California, USA
Distance from station: SW 25mi, 40km
Updated: Sun, 26-Mar-2017 4:51pm PDT
Overcast
Overcast
 Wind from SE
Wind: SE 10 mph , 17 km/h
Temperature: 66°F , 19°C
Dew Point: 52°F , 11°C
Humidity: 60%
Barometer: 30.00 inHg , 1015.9 hPa
Clouds: Overcast
Visibility: 10 miles , 16 km
Cloud details: Overcast 4000 ft
2017/03/26 23:51 KVNY 262351Z 13009KT 10SM OVC040 19/11 A3000 RMK AO2 SLP154 T01890111 10206 20167 58012
 
KEDW - Edwards Afb, California, USA
Distance from station: NNE 33mi, 53km
Updated: Sun, 26-Mar-2017 4:58pm PDT
Few Clouds
Few Clouds
 Wind from W
Wind: W 22 mph , 35 km/h, Gust: 29 mph , 46 km/h
Temperature: 66°F , 19°C
Dew Point: 37°F , 3°C
Humidity: 35%
Barometer: 29.94 inHg , 1013.9 hPa
Clouds: Few Clouds
Visibility: 10 miles , 16 km
Cloud details: Few Clouds 8000 ft
2017/03/26 23:58 KEDW 262358Z AUTO 26019G25KT 10SM FEW080 19/03 A2994 RMK AO2 PK WND 24030/47 SLP132 T01890030 10224 20159 57004
KSMO - Santa Monica, California, USA
Distance from station: SSW 35mi, 57km
Updated: Sun, 26-Mar-2017 4:51pm PDT
Clear
Clear
 Wind from SW
Wind: SW 8 mph , 13 km/h, Gust: 17 mph , 28 km/h
Temperature: 63°F , 17°C
Dew Point: 54°F , 12°C
Humidity: 73%
Barometer: 30.03 inHg , 1016.9 hPa
Clouds: Clear
Visibility: 10 miles , 16 km
2017/03/26 23:51 KSMO 262351Z 22007G15KT 10SM CLR 17/12 A3003 RMK AO2 SLP168 T01720117 10183 20167 58012
 
KLAX - Los Angeles, California, USA
Distance from station: SSW 39mi, 63km
Updated: Sun, 26-Mar-2017 4:53pm PDT
Partly cloudy
Partly cloudy
 Wind from WSW
Wind: WSW 13 mph , 20 km/h
Temperature: 63°F , 17°C
Dew Point: 54°F , 12°C
Humidity: 73%
Barometer: 30.03 inHg , 1016.9 hPa
Clouds: Partly cloudy
Visibility: 10 miles , 16 km
Cloud details: Few Clouds 1300 ft
Few Clouds 2500 ft
Partly cloudy 15000 ft
2017/03/26 23:53 KLAX 262353Z 25011KT 10SM FEW013 FEW025 SCT150 17/12 A3003 RMK AO2 SLP170 T01720122 10194 20167 58011
KMHV - Mojave, California, USA
Distance from station: N 41mi, 66km
Updated: Sun, 26-Mar-2017 5:20pm PDT
Clear
Clear
 Wind from W
Wind: W 28 mph , 44 km/h, Gust: 38 mph , 61 km/h
Temperature: 59°F , 15°C
Dew Point: 37°F , 3°C
Humidity: 45%
Barometer: 29.97 inHg , 1014.9 hPa
Clouds: Clear
Visibility: 10 miles , 16 km
2017/03/27 00:20 KMHV 270020Z AUTO 26024G33KT 10SM CLR 15/03 A2997 RMK A01
 
KFUL - Fullerton, California, USA
Distance from station: SSE 44mi, 70km
Updated: Sun, 26-Mar-2017 4:53pm PDT
Mostly cloudy
Mostly cloudy
 Wind from SSW
Wind: SSW 8 mph , 13 km/h
Temperature: 66°F , 19°C
Dew Point: 54°F , 12°C
Humidity: 64%
Barometer: 30.01 inHg , 1016.3 hPa
Clouds: Mostly cloudy
Visibility: 10 miles , 16 km
Cloud details: Few Clouds 4000 ft
Mostly cloudy 25000 ft
2017/03/26 23:53 KFUL 262353Z 21007KT 10SM FEW040 BKN250 19/12 A3001 RMK AO2 SLP162 T01940122 10217 20172 58007
KONT - Ontario, California, USA
Distance from station: SE 45mi, 72km
Updated: Sun, 26-Mar-2017 4:53pm PDT
Mostly cloudy
Mostly cloudy
 Wind from WSW
Wind: WSW 8 mph , 13 km/h
Temperature: 64°F , 18°C
Dew Point: 50°F , 10°C
Humidity: 60%
Barometer: 30.01 inHg , 1016.3 hPa
Clouds: Mostly cloudy
Visibility: 10 miles , 16 km
Cloud details: Few Clouds 2000 ft
Mostly cloudy 5000 ft
Mostly cloudy 25000 ft
2017/03/26 23:53 KONT 262353Z 24007KT 10SM FEW020 BKN050 BKN250 18/10 A3001 RMK AO2 SLP159 T01830100 10206 20161 58008
 
KLGB - Long Beach, California, USA
Distance from station: S 46mi, 74km
Updated: Sun, 26-Mar-2017 4:53pm PDT
Few Clouds
Few Clouds
 Wind from WNW
Wind: WNW 9 mph , 15 km/h
Temperature: 68°F , 20°C
Dew Point: 52°F , 11°C
Humidity: 56%
Barometer: 30.02 inHg , 1016.6 hPa
Clouds: Few Clouds
Visibility: 10 miles , 16 km
Cloud details: Few Clouds 3100 ft
2017/03/26 23:53 KLGB 262353Z 30008KT 10SM FEW031 20/11 A3002 RMK AO2 SLP165 T02000106 10200 20167 58013
KVCV - Victorville, California, USA
Distance from station: E 46mi, 74km
Updated: Sun, 26-Mar-2017 5:35pm PDT
Overcast
Overcast
 Wind from W
Wind: W 15 mph , 24 km/h, Gust: 24 mph , 39 km/h
Temperature: 66°F , 19°C
Dew Point: 39°F , 4°C
Humidity: 37%
Barometer: 29.98 inHg , 1015.2 hPa
Clouds: Overcast
Visibility: 10 miles , 16 km
Cloud details: Overcast 8500 ft
2017/03/27 00:35 KVCV 270035Z AUTO 28013G21KT 10SM OVC085 19/04 A2998 RMK AO2
 
KTSP - Tehachapi, California, USA
Distance from station: NNW 48mi, 77km
Updated: Sun, 26-Mar-2017 5:35pm PDT
Partly cloudy
Partly cloudy
 Wind from NW
Wind: NW 20 mph , 31 km/h, Gust: 26 mph , 43 km/h
Temperature: 50°F , 10°C
Wind Chill: 44°F , 7°C
Dew Point: 41°F , 5°C
Humidity: 71%
Barometer: 30.07 inHg , 1018.3 hPa
Clouds: Partly cloudy
Visibility: 10 miles , 16 km
Cloud details: Partly cloudy 2200 ft
Partly cloudy 2700 ft
2017/03/27 00:35 KTSP 270035Z AUTO 31017G23KT 10SM SCT022 SCT027 10/05 A3007 RMK AO2